sensor_id;sensor_type;location;lat;lon;timestamp;temperature;humidity
41324;DHT22;27073;51.128;4.220;2022-07-29T00:00:07;21.80;91.80
41324;DHT22;27073;51.128;4.220;2022-07-29T00:02:33;21.80;92.00
41324;DHT22;27073;51.128;4.220;2022-07-29T00:04:59;21.80;92.00
41324;DHT22;27073;51.128;4.220;2022-07-29T00:07:25;21.70;92.10
41324;DHT22;27073;51.128;4.220;2022-07-29T00:09:51;21.80;92.10
41324;DHT22;27073;51.128;4.220;2022-07-29T00:12:17;21.80;92.00
41324;DHT22;27073;51.128;4.220;2022-07-29T00:14:43;21.80;92.10
41324;DHT22;27073;51.128;4.220;2022-07-29T00:17:09;21.80;92.10
41324;DHT22;27073;51.128;4.220;2022-07-29T00:19:35;21.80;92.10
41324;DHT22;27073;51.128;4.220;2022-07-29T00:22:01;21.70;92.30
41324;DHT22;27073;51.128;4.220;2022-07-29T00:24:27;21.70;92.30
41324;DHT22;27073;51.128;4.220;2022-07-29T00:26:53;21.60;92.40
41324;DHT22;27073;51.128;4.220;2022-07-29T00:29:18;21.70;92.40
41324;DHT22;27073;51.128;4.220;2022-07-29T00:31:44;21.70;92.40
41324;DHT22;27073;51.128;4.220;2022-07-29T00:34:10;21.70;92.40
41324;DHT22;27073;51.128;4.220;2022-07-29T00:36:55;21.70;92.50
41324;DHT22;27073;51.128;4.220;2022-07-29T00:39:21;21.70;92.40
41324;DHT22;27073;51.128;4.220;2022-07-29T00:41:47;21.50;92.60
41324;DHT22;27073;51.128;4.220;2022-07-29T00:44:13;21.50;92.70
41324;DHT22;27073;51.128;4.220;2022-07-29T00:46:39;21.50;92.60
41324;DHT22;27073;51.128;4.220;2022-07-29T00:49:05;21.50;92.70
41324;DHT22;27073;51.128;4.220;2022-07-29T00:51:34;21.50;92.50
41324;DHT22;27073;51.128;4.220;2022-07-29T00:54:01;21.50;92.60
41324;DHT22;27073;51.128;4.220;2022-07-29T00:56:30;21.40;92.70
41324;DHT22;27073;51.128;4.220;2022-07-29T00:58:57;21.30;92.80
41324;DHT22;27073;51.128;4.220;2022-07-29T01:01:23;21.30;92.90
41324;DHT22;27073;51.128;4.220;2022-07-29T01:03:49;21.40;92.90
41324;DHT22;27073;51.128;4.220;2022-07-29T01:06:17;21.50;92.90
41324;DHT22;27073;51.128;4.220;2022-07-29T01:08:44;21.40;92.80
41324;DHT22;27073;51.128;4.220;2022-07-29T01:11:10;21.40;92.90
41324;DHT22;27073;51.128;4.220;2022-07-29T01:13:36;21.40;93.00
41324;DHT22;27073;51.128;4.220;2022-07-29T01:16:18;21.30;93.00
41324;DHT22;27073;51.128;4.220;2022-07-29T01:18:47;21.30;93.20
41324;DHT22;27073;51.128;4.220;2022-07-29T01:29:59;21.30;93.50
41324;DHT22;27073;51.128;4.220;2022-07-29T01:32:29;21.40;93.70
41324;DHT22;27073;51.128;4.220;2022-07-29T01:35:10;21.30;93.70
41324;DHT22;27073;51.128;4.220;2022-07-29T01:38:20;21.30;93.80
41324;DHT22;27073;51.128;4.220;2022-07-29T01:40:54;21.30;93.90
41324;DHT22;27073;51.128;4.220;2022-07-29T01:43:32;21.20;93.90
41324;DHT22;27073;51.128;4.220;2022-07-29T01:46:05;21.10;94.00
41324;DHT22;27073;51.128;4.220;2022-07-29T01:48:57;21.10;94.10
41324;DHT22;27073;51.128;4.220;2022-07-29T01:51:46;21.00;94.30
41324;DHT22;27073;51.128;4.220;2022-07-29T01:54:34;21.00;94.30
41324;DHT22;27073;51.128;4.220;2022-07-29T01:57:01;21.10;94.40
41324;DHT22;27073;51.128;4.220;2022-07-29T01:59:29;21.10;94.40
41324;DHT22;27073;51.128;4.220;2022-07-29T02:01:57;21.10;94.40
41324;DHT22;27073;51.128;4.220;2022-07-29T02:04:24;21.00;94.40
41324;DHT22;27073;51.128;4.220;2022-07-29T02:06:52;20.90;94.70
41324;DHT22;27073;51.128;4.220;2022-07-29T02:09:19;20.90;94.70
41324;DHT22;27073;51.128;4.220;2022-07-29T02:11:49;20.90;94.80
41324;DHT22;27073;51.128;4.220;2022-07-29T02:14:19;20.90;94.90
41324;DHT22;27073;51.128;4.220;2022-07-29T02:16:47;20.90;94.90
41324;DHT22;27073;51.128;4.220;2022-07-29T02:19:14;20.90;95.00
41324;DHT22;27073;51.128;4.220;2022-07-29T02:21:43;20.80;95.10
41324;DHT22;27073;51.128;4.220;2022-07-29T02:24:11;20.80;95.20
41324;DHT22;27073;51.128;4.220;2022-07-29T02:26:39;20.70;95.30
41324;DHT22;27073;51.128;4.220;2022-07-29T02:29:06;20.70;95.40
41324;DHT22;27073;51.128;4.220;2022-07-29T02:31:34;20.60;95.50
41324;DHT22;27073;51.128;4.220;2022-07-29T02:34:06;20.50;95.60
41324;DHT22;27073;51.128;4.220;2022-07-29T02:36:33;20.50;95.90
41324;DHT22;27073;51.128;4.220;2022-07-29T02:39:00;20.50;95.90
41324;DHT22;27073;51.128;4.220;2022-07-29T02:42:00;20.40;96.00
41324;DHT22;27073;51.128;4.220;2022-07-29T02:44:27;20.40;96.10
41324;DHT22;27073;51.128;4.220;2022-07-29T02:47:00;20.30;96.10
41324;DHT22;27073;51.128;4.220;2022-07-29T02:52:02;20.20;96.30
41324;DHT22;27073;51.128;4.220;2022-07-29T02:54:39;20.20;96.30
41324;DHT22;27073;51.128;4.220;2022-07-29T02:57:11;20.20;96.30
41324;DHT22;27073;51.128;4.220;2022-07-29T02:59:42;20.10;96.40
41324;DHT22;27073;51.128;4.220;2022-07-29T03:02:09;20.00;96.50
41324;DHT22;27073;51.128;4.220;2022-07-29T03:04:37;20.10;96.70
41324;DHT22;27073;51.128;4.220;2022-07-29T03:07:05;20.00;96.80
41324;DHT22;27073;51.128;4.220;2022-07-29T03:09:31;20.00;96.90
41324;DHT22;27073;51.128;4.220;2022-07-29T03:11:58;20.00;96.90
41324;DHT22;27073;51.128;4.220;2022-07-29T03:14:24;20.00;97.00
41324;DHT22;27073;51.128;4.220;2022-07-29T03:16:51;19.90;97.20
41324;DHT22;27073;51.128;4.220;2022-07-29T03:19:18;19.90;97.30
41324;DHT22;27073;51.128;4.220;2022-07-29T03:21:45;20.00;97.20
41324;DHT22;27073;51.128;4.220;2022-07-29T03:24:27;19.80;97.30
41324;DHT22;27073;51.128;4.220;2022-07-29T03:26:55;19.80;97.50
41324;DHT22;27073;51.128;4.220;2022-07-29T03:29:21;19.90;97.50
41324;DHT22;27073;51.128;4.220;2022-07-29T03:31:46;19.90;97.50
41324;DHT22;27073;51.128;4.220;2022-07-29T03:34:12;19.90;97.50
41324;DHT22;27073;51.128;4.220;2022-07-29T03:36:38;19.80;97.60
41324;DHT22;27073;51.128;4.220;2022-07-29T03:39:04;19.80;97.80
41324;DHT22;27073;51.128;4.220;2022-07-29T03:41:31;19.80;97.90
41324;DHT22;27073;51.128;4.220;2022-07-29T03:44:00;19.70;97.80
41324;DHT22;27073;51.128;4.220;2022-07-29T03:46:26;19.70;97.90
41324;DHT22;27073;51.128;4.220;2022-07-29T03:48:58;19.60;97.80
41324;DHT22;27073;51.128;4.220;2022-07-29T03:51:26;19.60;98.10
41324;DHT22;27073;51.128;4.220;2022-07-29T03:53:52;19.50;98.10
41324;DHT22;27073;51.128;4.220;2022-07-29T03:56:21;19.50;98.40
41324;DHT22;27073;51.128;4.220;2022-07-29T03:58:49;19.50;98.40
41324;DHT22;27073;51.128;4.220;2022-07-29T04:01:16;19.50;98.70
41324;DHT22;27073;51.128;4.220;2022-07-29T04:03:44;19.40;98.60
41324;DHT22;27073;51.128;4.220;2022-07-29T04:06:11;19.40;98.60
41324;DHT22;27073;51.128;4.220;2022-07-29T04:08:37;19.30;98.80
41324;DHT22;27073;51.128;4.220;2022-07-29T04:11:03;19.40;98.90
41324;DHT22;27073;51.128;4.220;2022-07-29T04:13:30;19.30;98.90
41324;DHT22;27073;51.128;4.220;2022-07-29T04:15:56;19.30;99.10
41324;DHT22;27073;51.128;4.220;2022-07-29T04:18:22;19.30;99.20
41324;DHT22;27073;51.128;4.220;2022-07-29T04:20:47;19.30;99.30
41324;DHT22;27073;51.128;4.220;2022-07-29T04:23:13;19.30;99.40
41324;DHT22;27073;51.128;4.220;2022-07-29T04:25:39;19.30;99.40
41324;DHT22;27073;51.128;4.220;2022-07-29T04:28:06;19.20;99.50
41324;DHT22;27073;51.128;4.220;2022-07-29T04:30:33;19.00;99.90
41324;DHT22;27073;51.128;4.220;2022-07-29T04:33:04;19.10;99.90
41324;DHT22;27073;51.128;4.220;2022-07-29T04:35:34;19.00;99.90
41324;DHT22;27073;51.128;4.220;2022-07-29T04:38:00;18.90;99.90
41324;DHT22;27073;51.128;4.220;2022-07-29T04:40:26;19.00;99.90
41324;DHT22;27073;51.128;4.220;2022-07-29T04:42:51;19.10;99.90
41324;DHT22;27073;51.128;4.220;2022-07-29T04:45:17;18.90;99.90
41324;DHT22;27073;51.128;4.220;2022-07-29T04:47:43;18.90;99.90
41324;DHT22;27073;51.128;4.220;2022-07-29T04:50:09;18.90;99.90
41324;DHT22;27073;51.128;4.220;2022-07-29T04:52:35;18.90;99.90
41324;DHT22;27073;51.128;4.220;2022-07-29T04:55:03;18.90;99.90
41324;DHT22;27073;51.128;4.220;2022-07-29T04:57:29;18.80;99.90
41324;DHT22;27073;51.128;4.220;2022-07-29T04:59:55;18.70;99.90
41324;DHT22;27073;51.128;4.220;2022-07-29T05:02:21;18.80;99.90
41324;DHT22;27073;51.128;4.220;2022-07-29T05:04:47;18.90;99.90
41324;DHT22;27073;51.128;4.220;2022-07-29T05:07:13;18.90;99.90
41324;DHT22;27073;51.128;4.220;2022-07-29T05:09:39;19.00;99.90
41324;DHT22;27073;51.128;4.220;2022-07-29T05:12:06;19.00;99.90
41324;DHT22;27073;51.128;4.220;2022-07-29T05:14:32;19.00;99.90
41324;DHT22;27073;51.128;4.220;2022-07-29T05:16:57;19.00;99.90
41324;DHT22;27073;51.128;4.220;2022-07-29T05:19:23;19.00;99.90
41324;DHT22;27073;51.128;4.220;2022-07-29T05:21:49;19.10;99.90
41324;DHT22;27073;51.128;4.220;2022-07-29T05:24:15;18.90;99.90
41324;DHT22;27073;51.128;4.220;2022-07-29T05:26:41;19.00;99.90
41324;DHT22;27073;51.128;4.220;2022-07-29T05:29:08;19.00;99.90
41324;DHT22;27073;51.128;4.220;2022-07-29T05:31:34;19.00;99.90
41324;DHT22;27073;51.128;4.220;2022-07-29T05:34:00;19.10;99.90
41324;DHT22;27073;51.128;4.220;2022-07-29T05:36:26;19.20;99.90
41324;DHT22;27073;51.128;4.220;2022-07-29T05:38:52;19.30;99.90
41324;DHT22;27073;51.128;4.220;2022-07-29T05:41:18;19.30;99.90
41324;DHT22;27073;51.128;4.220;2022-07-29T05:43:44;19.40;99.90
41324;DHT22;27073;51.128;4.220;2022-07-29T05:46:10;19.60;99.90
41324;DHT22;27073;51.128;4.220;2022-07-29T05:48:36;19.70;99.90
41324;DHT22;27073;51.128;4.220;2022-07-29T05:51:01;19.70;99.90
41324;DHT22;27073;51.128;4.220;2022-07-29T05:53:27;19.60;99.90
41324;DHT22;27073;51.128;4.220;2022-07-29T05:55:53;19.70;99.90
41324;DHT22;27073;51.128;4.220;2022-07-29T05:58:19;19.80;99.90
41324;DHT22;27073;51.128;4.220;2022-07-29T06:00:45;19.70;99.90
41324;DHT22;27073;51.128;4.220;2022-07-29T06:03:10;19.90;99.90
41324;DHT22;27073;51.128;4.220;2022-07-29T06:05:36;20.00;99.90
41324;DHT22;27073;51.128;4.220;2022-07-29T06:08:03;20.00;99.90
41324;DHT22;27073;51.128;4.220;2022-07-29T06:10:31;20.00;99.90
41324;DHT22;27073;51.128;4.220;2022-07-29T06:12:56;20.00;99.90
41324;DHT22;27073;51.128;4.220;2022-07-29T06:15:22;19.90;99.90
41324;DHT22;27073;51.128;4.220;2022-07-29T06:17:48;19.90;99.90
41324;DHT22;27073;51.128;4.220;2022-07-29T06:20:13;19.90;99.90
41324;DHT22;27073;51.128;4.220;2022-07-29T06:22:39;19.90;99.90
41324;DHT22;27073;51.128;4.220;2022-07-29T06:25:05;20.00;99.90
41324;DHT22;27073;51.128;4.220;2022-07-29T06:27:31;20.00;99.90
41324;DHT22;27073;51.128;4.220;2022-07-29T06:29:57;19.80;99.90
41324;DHT22;27073;51.128;4.220;2022-07-29T06:32:22;19.80;99.90
41324;DHT22;27073;51.128;4.220;2022-07-29T06:34:48;19.80;99.90
41324;DHT22;27073;51.128;4.220;2022-07-29T06:37:14;19.90;99.90
41324;DHT22;27073;51.128;4.220;2022-07-29T06:39:39;19.90;99.90
41324;DHT22;27073;51.128;4.220;2022-07-29T06:42:06;19.90;99.90
41324;DHT22;27073;51.128;4.220;2022-07-29T06:44:32;20.00;99.90
41324;DHT22;27073;51.128;4.220;2022-07-29T06:47:00;20.00;99.90
41324;DHT22;27073;51.128;4.220;2022-07-29T06:49:25;19.90;99.90
41324;DHT22;27073;51.128;4.220;2022-07-29T06:51:54;20.00;99.90
41324;DHT22;27073;51.128;4.220;2022-07-29T06:54:20;19.70;99.90
41324;DHT22;27073;51.128;4.220;2022-07-29T06:56:46;19.70;99.90
41324;DHT22;27073;51.128;4.220;2022-07-29T06:59:12;19.70;99.90
41324;DHT22;27073;51.128;4.220;2022-07-29T07:01:41;19.80;99.90
41324;DHT22;27073;51.128;4.220;2022-07-29T07:04:08;19.90;99.90
41324;DHT22;27073;51.128;4.220;2022-07-29T07:06:34;19.70;99.90
41324;DHT22;27073;51.128;4.220;2022-07-29T07:09:01;19.70;99.90
41324;DHT22;27073;51.128;4.220;2022-07-29T07:11:27;19.70;99.90
41324;DHT22;27073;51.128;4.220;2022-07-29T07:13:53;20.00;99.90
41324;DHT22;27073;51.128;4.220;2022-07-29T07:16:18;20.20;99.90
41324;DHT22;27073;51.128;4.220;2022-07-29T07:18:44;20.30;99.90
41324;DHT22;27073;51.128;4.220;2022-07-29T07:21:11;20.50;99.90
41324;DHT22;27073;51.128;4.220;2022-07-29T07:23:37;20.60;99.90
41324;DHT22;27073;51.128;4.220;2022-07-29T07:26:03;20.80;99.90
41324;DHT22;27073;51.128;4.220;2022-07-29T07:28:28;20.90;99.50
41324;DHT22;27073;51.128;4.220;2022-07-29T07:30:54;20.90;99.40
41324;DHT22;27073;51.128;4.220;2022-07-29T07:33:20;21.00;99.40
41324;DHT22;27073;51.128;4.220;2022-07-29T07:35:46;21.00;99.30
41324;DHT22;27073;51.128;4.220;2022-07-29T07:38:12;21.20;99.40
41324;DHT22;27073;51.128;4.220;2022-07-29T07:40:38;21.30;99.30
41324;DHT22;27073;51.128;4.220;2022-07-29T07:43:04;21.20;99.00
41324;DHT22;27073;51.128;4.220;2022-07-29T07:45:29;21.10;99.00
41324;DHT22;27073;51.128;4.220;2022-07-29T07:47:58;21.30;99.20
41324;DHT22;27073;51.128;4.220;2022-07-29T07:50:25;21.40;99.40
41324;DHT22;27073;51.128;4.220;2022-07-29T07:52:54;21.50;99.40
41324;DHT22;27073;51.128;4.220;2022-07-29T07:55:23;21.50;99.10
41324;DHT22;27073;51.128;4.220;2022-07-29T07:57:49;21.60;99.20
41324;DHT22;27073;51.128;4.220;2022-07-29T08:00:16;21.60;98.90
41324;DHT22;27073;51.128;4.220;2022-07-29T08:02:41;21.40;99.30
41324;DHT22;27073;51.128;4.220;2022-07-29T08:05:09;21.40;99.60
41324;DHT22;27073;51.128;4.220;2022-07-29T08:07:35;21.30;99.60
41324;DHT22;27073;51.128;4.220;2022-07-29T08:10:01;21.40;99.70
41324;DHT22;27073;51.128;4.220;2022-07-29T08:12:27;21.50;99.10
41324;DHT22;27073;51.128;4.220;2022-07-29T08:14:53;21.50;99.00
41324;DHT22;27073;51.128;4.220;2022-07-29T08:17:19;21.50;99.00
41324;DHT22;27073;51.128;4.220;2022-07-29T08:19:45;21.60;98.80
41324;DHT22;27073;51.128;4.220;2022-07-29T08:22:13;21.60;98.70
41324;DHT22;27073;51.128;4.220;2022-07-29T08:24:38;21.40;98.80
41324;DHT22;27073;51.128;4.220;2022-07-29T08:27:18;21.40;98.20
41324;DHT22;27073;51.128;4.220;2022-07-29T08:29:45;21.40;98.60
41324;DHT22;27073;51.128;4.220;2022-07-29T08:32:11;21.50;98.80
41324;DHT22;27073;51.128;4.220;2022-07-29T08:34:37;21.30;99.40
41324;DHT22;27073;51.128;4.220;2022-07-29T08:37:02;21.30;99.90
41324;DHT22;27073;51.128;4.220;2022-07-29T08:39:28;21.30;98.80
41324;DHT22;27073;51.128;4.220;2022-07-29T08:41:54;21.40;98.20
41324;DHT22;27073;51.128;4.220;2022-07-29T08:44:20;21.40;97.90
41324;DHT22;27073;51.128;4.220;2022-07-29T08:46:48;21.40;98.20
41324;DHT22;27073;51.128;4.220;2022-07-29T08:49:15;21.50;98.30
41324;DHT22;27073;51.128;4.220;2022-07-29T08:51:41;21.70;97.70
41324;DHT22;27073;51.128;4.220;2022-07-29T08:54:08;21.70;97.50
41324;DHT22;27073;51.128;4.220;2022-07-29T08:56:35;21.80;97.70
41324;DHT22;27073;51.128;4.220;2022-07-29T08:59:03;21.80;97.70
41324;DHT22;27073;51.128;4.220;2022-07-29T09:01:33;21.80;97.80
41324;DHT22;27073;51.128;4.220;2022-07-29T09:03:59;22.00;97.40
41324;DHT22;27073;51.128;4.220;2022-07-29T09:06:31;22.00;97.00
41324;DHT22;27073;51.128;4.220;2022-07-29T09:08:59;22.10;96.90
41324;DHT22;27073;51.128;4.220;2022-07-29T09:11:26;22.00;96.10
41324;DHT22;27073;51.128;4.220;2022-07-29T09:13:52;22.00;96.50
41324;DHT22;27073;51.128;4.220;2022-07-29T09:16:17;22.10;96.70
41324;DHT22;27073;51.128;4.220;2022-07-29T09:18:45;22.10;96.40
41324;DHT22;27073;51.128;4.220;2022-07-29T09:21:16;22.10;96.30
41324;DHT22;27073;51.128;4.220;2022-07-29T09:24:12;22.10;96.70
41324;DHT22;27073;51.128;4.220;2022-07-29T09:26:46;22.20;96.50
41324;DHT22;27073;51.128;4.220;2022-07-29T09:29:18;22.30;96.40
41324;DHT22;27073;51.128;4.220;2022-07-29T09:31:46;22.40;96.40
41324;DHT22;27073;51.128;4.220;2022-07-29T09:34:21;22.60;96.00
41324;DHT22;27073;51.128;4.220;2022-07-29T09:36:49;22.70;96.60
41324;DHT22;27073;51.128;4.220;2022-07-29T09:39:35;22.80;95.70
41324;DHT22;27073;51.128;4.220;2022-07-29T09:42:06;22.70;95.50
41324;DHT22;27073;51.128;4.220;2022-07-29T09:44:49;22.70;95.40
41324;DHT22;27073;51.128;4.220;2022-07-29T09:47:16;23.00;95.70
41324;DHT22;27073;51.128;4.220;2022-07-29T09:52:20;23.00;95.30
41324;DHT22;27073;51.128;4.220;2022-07-29T09:54:46;23.00;95.00
41324;DHT22;27073;51.128;4.220;2022-07-29T09:57:26;23.10;95.20
41324;DHT22;27073;51.128;4.220;2022-07-29T10:02:33;23.20;94.70
41324;DHT22;27073;51.128;4.220;2022-07-29T10:05:01;23.40;94.80
41324;DHT22;27073;51.128;4.220;2022-07-29T10:07:52;23.50;94.40
41324;DHT22;27073;51.128;4.220;2022-07-29T10:10:33;23.60;94.00
41324;DHT22;27073;51.128;4.220;2022-07-29T10:13:05;23.60;94.00
41324;DHT22;27073;51.128;4.220;2022-07-29T10:15:33;23.70;94.60
41324;DHT22;27073;51.128;4.220;2022-07-29T10:17:59;23.80;94.10
41324;DHT22;27073;51.128;4.220;2022-07-29T10:20:27;23.80;93.40
41324;DHT22;27073;51.128;4.220;2022-07-29T10:22:53;23.90;93.10
41324;DHT22;27073;51.128;4.220;2022-07-29T10:25:22;24.00;93.40
41324;DHT22;27073;51.128;4.220;2022-07-29T10:27:50;24.10;93.10
41324;DHT22;27073;51.128;4.220;2022-07-29T10:30:20;24.20;93.00
41324;DHT22;27073;51.128;4.220;2022-07-29T10:33:21;24.10;92.70
41324;DHT22;27073;51.128;4.220;2022-07-29T10:36:11;24.20;93.30
41324;DHT22;27073;51.128;4.220;2022-07-29T10:44:26;24.40;92.10
41324;DHT22;27073;51.128;4.220;2022-07-29T10:46:53;24.60;92.00
41324;DHT22;27073;51.128;4.220;2022-07-29T10:49:24;24.60;92.10
41324;DHT22;27073;51.128;4.220;2022-07-29T10:52:16;24.60;92.30
41324;DHT22;27073;51.128;4.220;2022-07-29T10:54:47;24.70;92.50
41324;DHT22;27073;51.128;4.220;2022-07-29T10:57:17;24.80;92.80
41324;DHT22;27073;51.128;4.220;2022-07-29T10:59:49;25.00;91.90
41324;DHT22;27073;51.128;4.220;2022-07-29T11:05:04;24.90;91.80
41324;DHT22;27073;51.128;4.220;2022-07-29T11:07:33;25.00;91.30
41324;DHT22;27073;51.128;4.220;2022-07-29T11:10:19;25.00;90.30
41324;DHT22;27073;51.128;4.220;2022-07-29T11:12:45;25.10;91.50
41324;DHT22;27073;51.128;4.220;2022-07-29T11:15:14;24.90;91.50
41324;DHT22;27073;51.128;4.220;2022-07-29T11:22:57;25.10;90.80
41324;DHT22;27073;51.128;4.220;2022-07-29T11:25:23;25.30;90.90
41324;DHT22;27073;51.128;4.220;2022-07-29T11:27:49;25.50;90.60
41324;DHT22;27073;51.128;4.220;2022-07-29T11:30:16;25.50;89.80
41324;DHT22;27073;51.128;4.220;2022-07-29T11:32:43;25.40;89.10
41324;DHT22;27073;51.128;4.220;2022-07-29T11:35:23;25.50;89.70
41324;DHT22;27073;51.128;4.220;2022-07-29T11:46:46;25.90;84.90
41324;DHT22;27073;51.128;4.220;2022-07-29T11:49:21;26.20;87.60
41324;DHT22;27073;51.128;4.220;2022-07-29T11:51:54;26.40;86.90
41324;DHT22;27073;51.128;4.220;2022-07-29T11:54:25;26.40;85.90
41324;DHT22;27073;51.128;4.220;2022-07-29T11:56:52;26.50;88.70
41324;DHT22;27073;51.128;4.220;2022-07-29T11:59:19;26.70;88.50
41324;DHT22;27073;51.128;4.220;2022-07-29T12:01:54;26.80;85.50
41324;DHT22;27073;51.128;4.220;2022-07-29T12:04:20;27.00;86.80
41324;DHT22;27073;51.128;4.220;2022-07-29T12:06:52;27.00;87.00
41324;DHT22;27073;51.128;4.220;2022-07-29T12:09:19;27.20;85.60
41324;DHT22;27073;51.128;4.220;2022-07-29T12:11:46;27.30;86.70
41324;DHT22;27073;51.128;4.220;2022-07-29T12:14:31;27.30;85.50
41324;DHT22;27073;51.128;4.220;2022-07-29T12:16:58;27.30;85.50
41324;DHT22;27073;51.128;4.220;2022-07-29T12:19:25;27.30;85.40
41324;DHT22;27073;51.128;4.220;2022-07-29T12:21:52;26.80;84.60
41324;DHT22;27073;51.128;4.220;2022-07-29T12:24:19;26.70;84.20
41324;DHT22;27073;51.128;4.220;2022-07-29T12:26:55;26.80;84.50
41324;DHT22;27073;51.128;4.220;2022-07-29T12:29:22;27.10;84.90
41324;DHT22;27073;51.128;4.220;2022-07-29T12:31:52;27.30;85.10
41324;DHT22;27073;51.128;4.220;2022-07-29T12:34:22;27.20;83.00
41324;DHT22;27073;51.128;4.220;2022-07-29T12:36:48;26.90;82.20
41324;DHT22;27073;51.128;4.220;2022-07-29T12:39:18;26.60;82.40
41324;DHT22;27073;51.128;4.220;2022-07-29T12:41:44;26.70;82.90
41324;DHT22;27073;51.128;4.220;2022-07-29T12:44:10;27.00;82.50
41324;DHT22;27073;51.128;4.220;2022-07-29T12:46:36;27.30;81.80
41324;DHT22;27073;51.128;4.220;2022-07-29T12:49:02;27.50;81.30
41324;DHT22;27073;51.128;4.220;2022-07-29T12:51:32;27.70;82.90
41324;DHT22;27073;51.128;4.220;2022-07-29T12:54:10;27.80;81.40
41324;DHT22;27073;51.128;4.220;2022-07-29T12:56:40;27.80;82.00
41324;DHT22;27073;51.128;4.220;2022-07-29T12:59:14;27.70;81.40
41324;DHT22;27073;51.128;4.220;2022-07-29T13:01:40;28.10;83.30
41324;DHT22;27073;51.128;4.220;2022-07-29T13:04:06;28.40;81.40
41324;DHT22;27073;51.128;4.220;2022-07-29T13:06:44;28.70;82.20
41324;DHT22;27073;51.128;4.220;2022-07-29T13:09:20;28.30;80.90
41324;DHT22;27073;51.128;4.220;2022-07-29T13:11:50;28.10;80.20
41324;DHT22;27073;51.128;4.220;2022-07-29T13:14:40;27.30;80.80
41324;DHT22;27073;51.128;4.220;2022-07-29T13:17:20;27.40;81.00
41324;DHT22;27073;51.128;4.220;2022-07-29T13:19:49;28.00;83.40
41324;DHT22;27073;51.128;4.220;2022-07-29T13:22:18;28.00;79.90
41324;DHT22;27073;51.128;4.220;2022-07-29T13:24:55;28.10;81.50
41324;DHT22;27073;51.128;4.220;2022-07-29T13:27:26;28.30;80.90
41324;DHT22;27073;51.128;4.220;2022-07-29T13:29:53;28.60;82.40
41324;DHT22;27073;51.128;4.220;2022-07-29T13:32:22;28.80;81.20
41324;DHT22;27073;51.128;4.220;2022-07-29T13:34:48;28.40;78.90
41324;DHT22;27073;51.128;4.220;2022-07-29T13:37:14;28.50;80.80
41324;DHT22;27073;51.128;4.220;2022-07-29T13:39:40;28.60;80.60
41324;DHT22;27073;51.128;4.220;2022-07-29T13:42:06;28.80;78.80
41324;DHT22;27073;51.128;4.220;2022-07-29T13:44:33;28.50;78.40
41324;DHT22;27073;51.128;4.220;2022-07-29T13:46:58;28.30;78.50
41324;DHT22;27073;51.128;4.220;2022-07-29T13:49:25;28.50;80.50
41324;DHT22;27073;51.128;4.220;2022-07-29T13:51:51;28.60;77.20
41324;DHT22;27073;51.128;4.220;2022-07-29T13:54:17;28.20;78.20
41324;DHT22;27073;51.128;4.220;2022-07-29T13:56:42;28.30;79.00
41324;DHT22;27073;51.128;4.220;2022-07-29T13:59:08;28.30;78.00
41324;DHT22;27073;51.128;4.220;2022-07-29T14:01:37;28.60;79.00
41324;DHT22;27073;51.128;4.220;2022-07-29T14:04:03;29.00;79.60
41324;DHT22;27073;51.128;4.220;2022-07-29T14:06:29;29.30;77.30
41324;DHT22;27073;51.128;4.220;2022-07-29T14:08:54;29.40;76.80
41324;DHT22;27073;51.128;4.220;2022-07-29T14:11:20;29.90;77.90
41324;DHT22;27073;51.128;4.220;2022-07-29T14:13:46;30.70;75.50
41324;DHT22;27073;51.128;4.220;2022-07-29T14:16:12;31.00;74.30
41324;DHT22;27073;51.128;4.220;2022-07-29T14:18:37;31.00;73.10
41324;DHT22;27073;51.128;4.220;2022-07-29T14:21:03;30.70;72.90
41324;DHT22;27073;51.128;4.220;2022-07-29T14:23:29;30.30;73.00
41324;DHT22;27073;51.128;4.220;2022-07-29T14:25:54;29.90;73.50
41324;DHT22;27073;51.128;4.220;2022-07-29T14:28:20;32.00;74.30
41324;DHT22;27073;51.128;4.220;2022-07-29T14:30:46;34.10;72.10
41324;DHT22;27073;51.128;4.220;2022-07-29T14:33:12;35.90;70.60
41324;DHT22;27073;51.128;4.220;2022-07-29T14:35:38;34.80;66.30
41324;DHT22;27073;51.128;4.220;2022-07-29T14:38:04;34.90;66.20
41324;DHT22;27073;51.128;4.220;2022-07-29T14:40:30;35.30;64.60
41324;DHT22;27073;51.128;4.220;2022-07-29T14:42:56;34.60;65.60
41324;DHT22;27073;51.128;4.220;2022-07-29T14:45:21;35.10;64.00
41324;DHT22;27073;51.128;4.220;2022-07-29T14:47:48;37.30;65.50
41324;DHT22;27073;51.128;4.220;2022-07-29T14:50:15;38.40;63.80
41324;DHT22;27073;51.128;4.220;2022-07-29T14:52:42;37.80;60.40
41324;DHT22;27073;51.128;4.220;2022-07-29T14:55:08;35.80;61.60
41324;DHT22;27073;51.128;4.220;2022-07-29T14:57:34;36.10;62.30
41324;DHT22;27073;51.128;4.220;2022-07-29T15:00:00;37.40;61.40
41324;DHT22;27073;51.128;4.220;2022-07-29T15:02:26;37.00;61.50
41324;DHT22;27073;51.128;4.220;2022-07-29T15:04:52;34.50;61.00
41324;DHT22;27073;51.128;4.220;2022-07-29T15:07:17;34.70;62.10
41324;DHT22;27073;51.128;4.220;2022-07-29T15:09:43;36.30;62.30
41324;DHT22;27073;51.128;4.220;2022-07-29T15:12:10;36.80;60.20
41324;DHT22;27073;51.128;4.220;2022-07-29T15:14:36;37.60;61.40
41324;DHT22;27073;51.128;4.220;2022-07-29T15:17:02;38.40;60.10
41324;DHT22;27073;51.128;4.220;2022-07-29T15:19:28;39.20;59.70
41324;DHT22;27073;51.128;4.220;2022-07-29T15:21:54;39.20;58.80
41324;DHT22;27073;51.128;4.220;2022-07-29T15:24:20;40.20;57.70
41324;DHT22;27073;51.128;4.220;2022-07-29T15:26:46;40.60;58.30
41324;DHT22;27073;51.128;4.220;2022-07-29T15:29:12;39.30;57.10
41324;DHT22;27073;51.128;4.220;2022-07-29T15:31:38;36.90;57.20
41324;DHT22;27073;51.128;4.220;2022-07-29T15:34:04;35.10;58.20
41324;DHT22;27073;51.128;4.220;2022-07-29T15:36:30;34.40;59.40
41324;DHT22;27073;51.128;4.220;2022-07-29T15:38:56;35.40;60.60
41324;DHT22;27073;51.128;4.220;2022-07-29T15:41:22;37.10;60.60
41324;DHT22;27073;51.128;4.220;2022-07-29T15:43:48;38.50;59.50
41324;DHT22;27073;51.128;4.220;2022-07-29T15:46:15;39.20;57.20
41324;DHT22;27073;51.128;4.220;2022-07-29T15:49:01;37.70;57.80
41324;DHT22;27073;51.128;4.220;2022-07-29T15:51:28;37.50;58.60
41324;DHT22;27073;51.128;4.220;2022-07-29T15:53:53;38.00;59.50
41324;DHT22;27073;51.128;4.220;2022-07-29T15:56:19;39.30;58.50
41324;DHT22;27073;51.128;4.220;2022-07-29T15:58:45;39.60;57.60
41324;DHT22;27073;51.128;4.220;2022-07-29T16:01:11;38.60;58.00
41324;DHT22;27073;51.128;4.220;2022-07-29T16:03:37;37.30;56.70
41324;DHT22;27073;51.128;4.220;2022-07-29T16:06:03;35.40;58.00
41324;DHT22;27073;51.128;4.220;2022-07-29T16:08:28;34.20;60.00
41324;DHT22;27073;51.128;4.220;2022-07-29T16:10:54;34.50;61.40
41324;DHT22;27073;51.128;4.220;2022-07-29T16:13:20;35.60;60.20
41324;DHT22;27073;51.128;4.220;2022-07-29T16:15:46;36.20;59.70